createdAt,value
2022-08-14T00:01:55.078Z,21.63
2022-08-14T00:04:35.905Z,21.59
2022-08-14T00:07:10.890Z,21.62
2022-08-14T00:09:39.852Z,21.41
2022-08-14T00:12:23.745Z,21.73
2022-08-14T00:14:54.996Z,21.53
2022-08-14T00:17:22.946Z,21.61
2022-08-14T00:19:51.726Z,21.71
2022-08-14T00:22:44.074Z,21.73
2022-08-14T00:25:08.502Z,21.29
2022-08-14T00:27:38.042Z,21.44
2022-08-14T00:30:10.886Z,21.36
2022-08-14T00:32:50.600Z,21.30
2022-08-14T00:36:35.190Z,21.28
2022-08-14T00:38:13.006Z,21.24
2022-08-14T00:40:40.297Z,21.21
2022-08-14T00:43:14.929Z,21.20
2022-08-14T00:45:43.119Z,21.17
2022-08-14T00:48:34.019Z,21.00
2022-08-14T00:51:06.280Z,21.09
2022-08-14T00:53:33.114Z,21.01
2022-08-14T00:55:59.946Z,20.96
2022-08-14T00:58:33.371Z,21.01
2022-08-14T01:01:09.403Z,21.07
2022-08-14T01:03:39.737Z,21.03
2022-08-14T01:06:11.661Z,21.03
2022-08-14T01:08:51.911Z,21.01
2022-08-14T01:11:35.438Z,21.04
2022-08-14T01:14:18.214Z,21.07
2022-08-14T01:16:52.992Z,21.10
2022-08-14T01:19:39.178Z,20.96
2022-08-14T01:22:12.706Z,21.08
2022-08-14T01:24:51.815Z,20.94
2022-08-14T01:27:22.395Z,20.81
2022-08-14T01:29:58.716Z,20.56
2022-08-14T01:32:30.104Z,20.88
2022-08-14T01:35:17.179Z,20.88
2022-08-14T01:37:56.443Z,20.63
2022-08-14T01:40:33.502Z,20.89
2022-08-14T01:43:18.355Z,20.93
2022-08-14T01:45:57.900Z,20.81
2022-08-14T01:48:37.266Z,20.93
2022-08-14T01:51:18.725Z,20.60
2022-08-14T01:53:54.941Z,20.75
2022-08-14T01:56:39.810Z,20.63
2022-08-14T01:59:14.657Z,20.83
2022-08-14T02:01:51.293Z,20.78
2022-08-14T02:04:54.573Z,20.86
2022-08-14T02:07:15.502Z,20.76
2022-08-14T02:09:43.294Z,20.78
2022-08-14T02:12:10.382Z,20.59
2022-08-14T02:15:00.685Z,20.69
2022-08-14T02:17:30.822Z,20.68
2022-08-14T02:19:58.538Z,20.59
2022-08-14T02:22:29.096Z,20.67
2022-08-14T02:25:01.589Z,20.47
2022-08-14T02:28:24.454Z,20.65
2022-08-14T02:33:05.824Z,20.46
2022-08-14T02:35:34.323Z,20.55
2022-08-14T02:38:11.836Z,19.90
2022-08-14T02:41:00.995Z,19.41
2022-08-14T02:53:49.316Z,19.61
2022-08-14T02:56:30.632Z,19.90
2022-08-14T02:59:10.962Z,19.59
2022-08-14T03:01:50.167Z,19.35
2022-08-14T03:08:18.852Z,20.52
2022-08-14T03:10:49.102Z,20.62
2022-08-14T03:13:21.170Z,20.50
2022-08-14T03:15:55.686Z,20.55
2022-08-14T03:18:31.866Z,20.69
2022-08-14T03:45:25.749Z,19.99
2022-08-14T03:47:08.358Z,20.04
2022-08-14T03:49:42.139Z,20.55
2022-08-14T03:52:38.064Z,20.71
2022-08-14T04:00:13.801Z,20.91
2022-08-14T04:02:58.437Z,20.88
2022-08-14T04:05:25.385Z,20.95
2022-08-14T04:08:08.562Z,20.83
2022-08-14T04:10:41.181Z,20.88
2022-08-14T04:14:03.476Z,20.84
2022-08-14T04:16:32.576Z,20.73
2022-08-14T04:19:04.170Z,20.47
2022-08-14T04:21:39.822Z,20.84
2022-08-14T04:24:25.917Z,20.83
2022-08-14T04:26:55.647Z,20.80
2022-08-14T04:29:22.674Z,20.47
2022-08-14T04:32:59.275Z,20.64
2022-08-14T04:34:42.418Z,20.79
2022-08-14T04:37:42.708Z,20.98
2022-08-14T04:40:29.629Z,21.03
2022-08-14T04:43:17.583Z,21.06
2022-08-14T04:45:45.583Z,20.95
2022-08-14T04:48:39.606Z,20.90
2022-08-14T05:11:40.040Z,20.76
2022-08-14T05:14:17.097Z,20.60
2022-08-14T05:16:59.280Z,20.53
2022-08-14T05:19:32.477Z,20.78
2022-08-14T05:22:17.350Z,20.70
2022-08-14T05:24:52.932Z,20.69
2022-08-14T05:27:24.154Z,20.82
2022-08-14T05:29:55.299Z,20.80
2022-08-14T05:32:28.194Z,21.25
2022-08-14T05:34:58.814Z,20.86
2022-08-14T05:37:29.931Z,20.87
2022-08-14T05:40:01.951Z,21.07
2022-08-14T05:42:34.252Z,21.24
2022-08-14T05:45:04.214Z,21.20
2022-08-14T05:47:50.688Z,22.30
2022-08-14T05:50:20.152Z,21.75
2022-08-14T05:55:44.350Z,21.72
2022-08-14T05:58:13.179Z,21.34
2022-08-14T06:00:43.241Z,21.50
2022-08-14T06:07:16.403Z,21.48
2022-08-14T06:09:50.928Z,21.41
2022-08-14T06:15:30.340Z,22.17
2022-08-14T06:20:30.055Z,21.56
2022-08-14T06:23:02.922Z,22.37
2022-08-14T06:25:31.428Z,22.26
2022-08-14T06:28:02.038Z,22.75
2022-08-14T06:35:02.857Z,22.34
2022-08-14T06:42:32.930Z,22.23
2022-08-14T06:45:10.576Z,22.47
2022-08-14T06:47:43.841Z,23.14
2022-08-14T06:50:18.723Z,22.53
2022-08-14T06:53:37.193Z,22.17
2022-08-14T06:56:05.028Z,22.50
2022-08-14T06:58:35.526Z,22.87
2022-08-14T07:01:27.587Z,22.72
2022-08-14T07:04:24.680Z,22.78
2022-08-14T07:06:58.518Z,22.77
2022-08-14T07:12:10.270Z,23.44
2022-08-14T07:15:01.101Z,23.33
2022-08-14T07:17:29.283Z,23.01
2022-08-14T07:19:59.320Z,23.02
2022-08-14T07:22:33.051Z,23.44
2022-08-14T07:25:17.414Z,22.90
2022-08-14T07:27:44.296Z,23.09
2022-08-14T07:30:33.484Z,24.07
2022-08-14T07:32:58.717Z,23.89
2022-08-14T07:35:30.413Z,24.09
2022-08-14T07:38:20.004Z,24.25
2022-08-14T07:40:48.410Z,24.49
2022-08-14T07:43:21.928Z,24.53
2022-08-14T07:45:50.866Z,24.59
2022-08-14T07:48:24.856Z,24.43
2022-08-14T07:50:56.214Z,24.67
2022-08-14T07:53:30.031Z,24.75
2022-08-14T07:56:22.095Z,24.86
2022-08-14T07:58:51.449Z,24.84
2022-08-14T08:01:19.915Z,25.16
2022-08-14T08:04:16.655Z,25.26
2022-08-14T08:06:52.429Z,25.18
2022-08-14T08:09:25.163Z,24.99
2022-08-14T08:12:04.820Z,25.41
2022-08-14T08:14:56.004Z,25.25
2022-08-14T08:17:23.440Z,25.75
2022-08-14T08:19:51.422Z,25.52
2022-08-14T08:22:21.362Z,25.33
2022-08-14T08:24:50.304Z,25.98
2022-08-14T08:27:17.997Z,25.96
2022-08-14T08:29:50.810Z,25.77
2022-08-14T08:32:18.814Z,25.98
2022-08-14T08:34:48.546Z,26.45
2022-08-14T08:37:16.348Z,26.70
2022-08-14T08:40:02.775Z,26.73
2022-08-14T08:42:38.888Z,26.70
2022-08-14T08:45:17.301Z,26.37
2022-08-14T08:47:45.513Z,26.32
2022-08-14T08:50:31.459Z,26.73
2022-08-14T08:53:05.931Z,27.01
2022-08-14T08:55:39.269Z,27.06
2022-08-14T08:58:24.865Z,27.08
2022-08-14T09:00:54.999Z,27.26
2022-08-14T09:03:24.533Z,27.55
2022-08-14T09:05:58.376Z,27.53
2022-08-14T09:08:31.719Z,27.52
2022-08-14T09:11:19.138Z,27.53
2022-08-14T09:13:51.773Z,27.71
2022-08-14T09:16:23.566Z,27.70
2022-08-14T09:18:53.348Z,27.73
2022-08-14T09:21:24.067Z,27.84
2022-08-14T09:24:29.414Z,28.15
2022-08-14T09:26:49.424Z,28.42
2022-08-14T09:29:18.162Z,28.42
2022-08-14T09:31:57.028Z,28.58
2022-08-14T09:35:09.530Z,28.58
2022-08-14T09:38:00.246Z,28.37
2022-08-14T09:40:38.770Z,28.51
2022-08-14T09:43:43.431Z,28.43
2022-08-14T09:46:10.405Z,28.47
2022-08-14T09:48:45.429Z,28.49
2022-08-14T09:51:25.987Z,28.41
2022-08-14T09:54:19.555Z,28.36
2022-08-14T09:56:57.203Z,28.14
2022-08-14T09:59:28.390Z,28.53
2022-08-14T10:01:59.635Z,28.80
2022-08-14T10:04:34.378Z,28.37
2022-08-14T10:07:04.913Z,28.66
2022-08-14T10:09:34.829Z,28.53
2022-08-14T10:12:04.439Z,28.78
2022-08-14T10:14:36.716Z,28.35
2022-08-14T10:17:08.496Z,28.60
2022-08-14T10:19:48.576Z,29.23
2022-08-14T10:23:12.782Z,29.24
2022-08-14T10:25:14.322Z,29.25
2022-08-14T10:27:46.625Z,29.33
2022-08-14T10:30:22.512Z,29.21
2022-08-14T10:32:55.462Z,28.86
2022-08-14T10:35:31.091Z,28.70
2022-08-14T10:38:01.646Z,28.91
2022-08-14T10:40:38.265Z,29.26
2022-08-14T10:43:35.787Z,29.25
2022-08-14T10:46:59.211Z,29.04
2022-08-14T10:49:03.950Z,28.93
2022-08-14T10:51:42.019Z,29.05
2022-08-14T10:54:17.114Z,29.26
2022-08-14T10:57:22.399Z,29.47
2022-08-14T10:59:55.633Z,29.45
2022-08-14T11:02:36.180Z,29.52
2022-08-14T11:05:18.735Z,29.46
2022-08-14T11:07:59.691Z,29.46
2022-08-14T11:10:43.291Z,29.71
2022-08-14T11:13:27.343Z,29.94
2022-08-14T11:15:57.494Z,30.07
2022-08-14T11:18:32.311Z,30.06
2022-08-14T11:21:03.693Z,30.22
2022-08-14T11:23:37.880Z,30.20
2022-08-14T11:26:07.219Z,30.31
2022-08-14T11:28:46.988Z,30.36
2022-08-14T11:31:23.554Z,30.11
2022-08-14T11:33:57.216Z,30.06
2022-08-14T11:37:02.835Z,30.04
2022-08-14T11:39:35.020Z,30.69
2022-08-14T11:42:07.695Z,30.87
2022-08-14T11:44:56.903Z,30.55
2022-08-14T11:47:35.390Z,30.74
2022-08-14T11:50:34.143Z,30.63
2022-08-14T11:53:08.028Z,30.77
2022-08-14T11:55:39.751Z,30.90
2022-08-14T11:58:11.769Z,31.07
2022-08-14T12:00:50.044Z,31.22
2022-08-14T12:03:27.273Z,31.18
2022-08-14T12:06:09.562Z,31.37
2022-08-14T12:08:56.407Z,31.34
2022-08-14T12:11:43.193Z,31.05
2022-08-14T12:14:13.377Z,30.94
2022-08-14T12:17:12.277Z,31.31
2022-08-14T12:19:50.937Z,31.47
2022-08-14T12:22:40.035Z,31.55
2022-08-14T12:25:21.786Z,31.34
2022-08-14T12:27:59.368Z,31.36
2022-08-14T12:30:35.901Z,31.19
2022-08-14T12:33:31.220Z,31.41
2022-08-14T12:36:04.507Z,31.42
2022-08-14T12:38:35.972Z,31.73
2022-08-14T12:41:06.421Z,31.89
2022-08-14T12:43:49.067Z,31.69
2022-08-14T12:46:28.558Z,31.81
2022-08-14T12:49:17.821Z,32.30
2022-08-14T12:51:56.829Z,32.34
2022-08-14T12:54:28.079Z,31.99
2022-08-14T12:57:17.043Z,32.34
2022-08-14T12:59:47.663Z,32.11
2022-08-14T13:02:25.971Z,31.99
2022-08-14T13:04:55.960Z,31.77
2022-08-14T13:07:32.746Z,32.16
2022-08-14T13:10:45.660Z,32.34
2022-08-14T13:13:13.308Z,32.37
2022-08-14T13:15:40.353Z,32.40
2022-08-14T13:18:28.029Z,32.40
2022-08-14T13:21:01.841Z,32.35
2022-08-14T13:23:36.238Z,32.31
2022-08-14T13:26:06.004Z,32.13
2022-08-14T13:29:00.630Z,32.41
2022-08-14T13:31:30.222Z,32.65
2022-08-14T13:34:00.213Z,32.96
2022-08-14T13:36:54.468Z,32.74
2022-08-14T13:39:16.717Z,32.88
2022-08-14T13:41:45.032Z,32.75
2022-08-14T13:44:24.084Z,32.68
2022-08-14T13:46:52.694Z,33.04
2022-08-14T13:49:19.639Z,33.08
2022-08-14T13:51:53.138Z,33.13
2022-08-14T13:54:21.171Z,33.21
2022-08-14T13:56:49.568Z,33.11
2022-08-14T13:59:20.572Z,32.92
2022-08-14T14:02:06.267Z,32.99
2022-08-14T14:04:42.953Z,33.13
2022-08-14T14:07:21.727Z,32.96
2022-08-14T14:09:56.213Z,32.99
2022-08-14T14:12:37.533Z,32.85
2022-08-14T14:15:13.843Z,33.07
2022-08-14T14:17:41.424Z,33.24
2022-08-14T14:20:35.108Z,33.21
2022-08-14T14:23:09.742Z,32.92
2022-08-14T14:25:46.351Z,32.94
2022-08-14T14:28:24.031Z,32.39
2022-08-14T14:30:54.347Z,31.98
2022-08-14T14:33:45.166Z,31.46
2022-08-14T14:36:13.980Z,31.79
2022-08-14T14:38:44.381Z,31.76
2022-08-14T14:41:15.140Z,32.03
2022-08-14T14:43:46.818Z,31.89
2022-08-14T14:46:19.880Z,31.54
2022-08-14T14:48:54.029Z,31.51
2022-08-14T14:51:22.296Z,31.45
2022-08-14T14:53:49.641Z,31.55
2022-08-14T14:56:51.278Z,31.66
2022-08-14T14:59:03.510Z,31.56
2022-08-14T15:01:36.086Z,31.03
2022-08-14T15:04:07.936Z,30.93
2022-08-14T15:06:38.063Z,30.54
2022-08-14T15:09:17.724Z,30.68
2022-08-14T15:11:46.913Z,30.68
2022-08-14T15:14:55.668Z,30.73
2022-08-14T15:17:02.452Z,29.96
2022-08-14T15:19:29.771Z,30.37
2022-08-14T15:21:57.327Z,30.43
2022-08-14T15:24:26.896Z,30.28
2022-08-14T15:26:57.138Z,30.66
2022-08-14T15:29:26.302Z,30.78
2022-08-14T15:31:53.413Z,30.75
2022-08-14T15:34:44.604Z,30.55
2022-08-14T15:37:12.809Z,30.49
2022-08-14T15:39:42.028Z,30.44
2022-08-14T15:42:15.757Z,30.75
2022-08-14T15:44:58.316Z,30.30
2022-08-14T15:47:31.237Z,29.64
2022-08-14T15:50:01.198Z,29.60
2022-08-14T15:52:35.335Z,29.67
2022-08-14T15:55:08.071Z,29.60
2022-08-14T15:57:36.083Z,29.91
2022-08-14T16:00:40.813Z,29.61
2022-08-14T16:03:15.599Z,29.22
2022-08-14T16:05:45.983Z,29.16
2022-08-14T16:08:29.046Z,29.09
2022-08-14T16:10:59.699Z,28.82
2022-08-14T16:13:41.629Z,28.92
2022-08-14T16:16:47.294Z,28.87
2022-08-14T16:19:15.799Z,28.80
2022-08-14T16:22:01.985Z,28.88
2022-08-14T16:24:34.768Z,28.32
2022-08-14T16:27:05.182Z,28.43
2022-08-14T16:29:34.798Z,28.31
2022-08-14T16:32:31.993Z,28.18
2022-08-14T16:34:54.900Z,28.07
2022-08-14T16:37:31.111Z,27.84
2022-08-14T16:40:02.685Z,27.85
2022-08-14T16:43:02.189Z,27.82
2022-08-14T16:45:25.496Z,27.68
2022-08-14T16:47:53.269Z,27.83
2022-08-14T16:50:40.509Z,27.75
2022-08-14T16:53:09.518Z,27.75
2022-08-14T16:55:51.328Z,27.61
2022-08-14T16:58:26.996Z,27.75
2022-08-14T17:01:22.494Z,27.77
2022-08-14T17:04:14.940Z,27.79
2022-08-14T17:06:55.041Z,27.67
2022-08-14T17:09:30.445Z,27.64
2022-08-14T17:12:28.570Z,27.41
2022-08-14T17:15:16.223Z,26.66
2022-08-14T17:17:57.659Z,27.09
2022-08-14T17:20:53.357Z,27.05
2022-08-14T17:23:13.637Z,26.95
2022-08-14T17:25:50.736Z,26.71
2022-08-14T17:28:49.818Z,26.82
2022-08-14T17:31:09.802Z,26.58
2022-08-14T17:33:40.465Z,26.53
2022-08-14T17:36:20.866Z,26.85
2022-08-14T17:39:14.042Z,26.49
2022-08-14T17:42:02.768Z,26.51
2022-08-14T17:44:44.957Z,26.32
2022-08-14T17:47:18.403Z,26.44
2022-08-14T17:49:52.013Z,26.34
2022-08-14T17:52:34.517Z,26.33
2022-08-14T17:55:06.652Z,26.12
2022-08-14T17:57:35.404Z,26.18
2022-08-14T18:00:17.157Z,26.31
2022-08-14T18:02:51.148Z,26.28
2022-08-14T18:05:23.384Z,26.15
2022-08-14T18:08:34.051Z,25.98
2022-08-14T18:10:56.975Z,25.82
2022-08-14T18:13:50.365Z,25.92
2022-08-14T18:16:20.114Z,25.74
2022-08-14T18:18:51.079Z,25.60
2022-08-14T18:21:40.116Z,25.63
2022-08-14T18:24:20.185Z,25.56
2022-08-14T18:27:01.883Z,25.48
2022-08-14T18:29:32.094Z,25.02
2022-08-14T18:31:59.385Z,25.42
2022-08-14T18:34:37.919Z,25.43
2022-08-14T18:37:21.090Z,24.95
2022-08-14T18:40:01.831Z,25.45
2022-08-14T18:42:34.966Z,25.48
2022-08-14T18:45:02.086Z,25.51
2022-08-14T18:48:06.687Z,25.53
2022-08-14T18:50:30.944Z,25.56
2022-08-14T18:53:10.988Z,25.48
2022-08-14T18:55:53.263Z,25.63
2022-08-14T18:58:46.971Z,24.99
2022-08-14T19:01:29.489Z,25.57
2022-08-14T19:03:59.992Z,25.38
2022-08-14T19:06:42.845Z,25.55
2022-08-14T19:09:50.317Z,25.58
2022-08-14T19:12:56.762Z,25.59
2022-08-14T19:15:32.710Z,25.54
2022-08-14T19:18:14.060Z,24.88
2022-08-14T19:20:52.772Z,24.96
2022-08-14T19:23:42.824Z,25.02
2022-08-14T19:26:35.833Z,25.52
2022-08-14T19:29:35.985Z,25.60
2022-08-14T19:32:26.346Z,25.58
2022-08-14T19:34:54.815Z,24.95
2022-08-14T19:37:48.840Z,25.50
2022-08-14T19:40:42.725Z,25.43
2022-08-14T19:43:22.522Z,25.25
2022-08-14T19:46:38.741Z,25.42
2022-08-14T19:48:57.340Z,25.42
2022-08-14T19:51:24.885Z,25.40
2022-08-14T19:54:13.742Z,25.33
2022-08-14T19:56:45.120Z,25.29
2022-08-14T19:59:19.359Z,24.93
2022-08-14T20:01:51.363Z,24.76
2022-08-14T20:04:46.143Z,24.80
2022-08-14T20:07:27.228Z,25.05
2022-08-14T20:11:11.549Z,25.22
2022-08-14T20:13:32.406Z,25.20
2022-08-14T20:16:21.139Z,24.67
2022-08-14T20:19:20.638Z,25.08
2022-08-14T20:22:04.534Z,25.06
2022-08-14T20:24:47.372Z,25.14
2022-08-14T20:27:22.643Z,25.20
2022-08-14T20:30:29.603Z,25.26
2022-08-14T20:33:10.700Z,25.28
2022-08-14T20:35:49.426Z,24.68
2022-08-14T20:38:29.806Z,24.60
2022-08-14T20:41:06.634Z,24.89
2022-08-14T20:43:55.263Z,24.74
2022-08-14T20:46:29.583Z,24.98
2022-08-14T20:48:58.452Z,25.12
2022-08-14T20:51:37.355Z,24.77
2022-08-14T20:54:10.022Z,25.12
2022-08-14T20:56:40.503Z,24.87
2022-08-14T20:59:24.020Z,25.09
2022-08-14T21:01:55.282Z,24.68
2022-08-14T21:04:32.682Z,25.03
2022-08-14T21:07:25.799Z,24.48
2022-08-14T21:10:33.163Z,24.44
2022-08-14T21:13:26.235Z,24.56
2022-08-14T21:15:57.387Z,24.48
2022-08-14T21:18:28.582Z,24.39
2022-08-14T21:20:58.255Z,24.49
2022-08-14T21:23:25.246Z,23.92
2022-08-14T21:25:59.975Z,24.36
2022-08-14T21:28:30.649Z,24.27
2022-08-14T21:31:05.538Z,23.95
2022-08-14T21:33:34.292Z,23.96
2022-08-14T21:36:07.558Z,23.83
2022-08-14T21:38:38.148Z,23.76
2022-08-14T21:41:41.657Z,23.40
2022-08-14T21:44:17.551Z,23.64
2022-08-14T21:46:53.313Z,23.63
2022-08-14T21:49:38.489Z,23.32
2022-08-14T21:52:50.494Z,23.58
2022-08-14T21:55:09.153Z,23.35
2022-08-14T21:58:44.657Z,23.24
2022-08-14T22:00:42.406Z,23.03
2022-08-14T22:03:17.201Z,22.87
2022-08-14T22:05:48.174Z,23.01
2022-08-14T22:08:16.620Z,22.95
2022-08-14T22:10:46.860Z,22.63
2022-08-14T22:13:16.906Z,22.90
2022-08-14T22:15:49.753Z,22.68
2022-08-14T22:18:20.652Z,22.75
2022-08-14T22:20:53.407Z,22.81
2022-08-14T22:23:23.995Z,22.71
2022-08-14T22:25:52.392Z,22.60
2022-08-14T22:28:25.454Z,22.53
2022-08-14T22:30:54.707Z,22.30
2022-08-14T22:33:21.767Z,22.12
2022-08-14T22:35:56.306Z,22.23
2022-08-14T22:38:35.601Z,22.50
2022-08-14T22:41:26.594Z,21.94
2022-08-14T22:43:54.836Z,22.42
2022-08-14T22:46:21.926Z,22.18
2022-08-14T22:48:51.189Z,22.11
2022-08-14T22:51:22.642Z,22.04
2022-08-14T22:53:52.564Z,22.29
2022-08-14T22:56:29.523Z,22.26
2022-08-14T22:59:02.927Z,22.24
2022-08-14T23:01:46.169Z,22.22
2022-08-14T23:04:35.331Z,21.98
2022-08-14T23:07:21.967Z,22.23
2022-08-14T23:10:32.521Z,22.26
2022-08-14T23:12:54.817Z,22.07
2022-08-14T23:15:28.945Z,22.10
2022-08-14T23:17:58.728Z,22.13
2022-08-14T23:20:29.472Z,22.11
2022-08-14T23:22:56.928Z,21.76
2022-08-14T23:25:57.558Z,22.05
2022-08-14T23:28:34.964Z,21.99
2022-08-14T23:31:08.428Z,21.80
2022-08-14T23:33:45.764Z,21.84
2022-08-14T23:36:32.852Z,21.81
2022-08-14T23:39:10.462Z,21.59
2022-08-14T23:41:52.705Z,21.81
2022-08-14T23:44:22.509Z,21.49
2022-08-14T23:46:56.612Z,21.20
2022-08-14T23:49:25.857Z,21.60
2022-08-14T23:51:59.543Z,20.93
2022-08-14T23:54:49.297Z,21.13
2022-08-14T23:57:19.265Z,21.46
2022-08-14T23:59:54.429Z,21.37
